createdAt,value
2017-09-30T00:00:44.651Z,86.40
2017-09-30T00:03:12.164Z,86.50
2017-09-30T00:05:40.583Z,86.60
2017-09-30T00:08:08.099Z,86.50
2017-09-30T00:10:36.024Z,86.70
2017-09-30T00:13:03.531Z,86.70
2017-09-30T00:15:31.046Z,86.80
2017-09-30T00:17:58.572Z,86.80
2017-09-30T00:20:26.082Z,86.60
2017-09-30T00:22:53.611Z,86.60
2017-09-30T00:25:21.124Z,86.80
2017-09-30T00:27:48.659Z,86.90
2017-09-30T00:30:16.171Z,87.20
2017-09-30T00:32:44.106Z,87.00
2017-09-30T00:35:11.638Z,87.00
2017-09-30T00:37:40.539Z,87.00
2017-09-30T00:40:08.070Z,87.00
2017-09-30T00:42:35.584Z,87.20
2017-09-30T00:45:03.520Z,87.30
2017-09-30T00:47:31.039Z,87.30
2017-09-30T00:49:58.554Z,87.40
2017-09-30T00:52:26.088Z,87.50
2017-09-30T00:54:53.598Z,87.70
2017-09-30T00:57:21.127Z,87.90
2017-09-30T00:59:48.645Z,88.10
2017-09-30T01:02:16.570Z,88.10
2017-09-30T01:04:44.087Z,88.10
2017-09-30T01:07:11.627Z,88.20
2017-09-30T01:09:40.312Z,88.30
2017-09-30T01:12:08.231Z,88.50
2017-09-30T01:14:36.178Z,88.50
2017-09-30T01:17:03.691Z,88.50
2017-09-30T01:19:31.235Z,88.60
2017-09-30T01:21:58.757Z,88.60
2017-09-30T01:24:26.293Z,88.50
2017-09-30T01:26:54.196Z,88.70
2017-09-30T01:29:21.731Z,88.80
2017-09-30T01:31:49.260Z,88.90
2017-09-30T01:34:16.779Z,89.10
2017-09-30T01:36:44.312Z,89.40
2017-09-30T01:39:11.828Z,89.60
2017-09-30T01:41:40.871Z,89.80
2017-09-30T01:44:08.388Z,89.80
2017-09-30T01:46:35.966Z,90.00
2017-09-30T01:49:03.475Z,90.00
2017-09-30T01:51:30.988Z,90.10
2017-09-30T01:53:58.920Z,89.90
2017-09-30T01:56:26.432Z,89.90
2017-09-30T01:58:53.956Z,89.90
2017-09-30T02:01:21.475Z,89.90
2017-09-30T02:03:49.011Z,89.90
2017-09-30T02:06:16.927Z,89.60
2017-09-30T02:08:44.464Z,89.60
2017-09-30T02:11:12.000Z,89.60
2017-09-30T02:13:40.455Z,90.10
2017-09-30T02:16:07.996Z,90.50
2017-09-30T02:18:35.520Z,92.10
2017-09-30T02:21:03.052Z,93.30
2017-09-30T02:23:30.572Z,94.30
2017-09-30T02:25:58.119Z,95.00
2017-09-30T02:28:25.644Z,96.10
2017-09-30T02:30:53.169Z,96.90
2017-09-30T02:33:21.103Z,97.60
2017-09-30T02:35:48.619Z,97.60
2017-09-30T02:38:16.147Z,96.50
2017-09-30T02:40:43.662Z,97.10
2017-09-30T02:43:11.214Z,96.90
2017-09-30T02:45:39.414Z,97.00
2017-09-30T02:48:06.941Z,97.20
2017-09-30T02:50:34.475Z,97.30
2017-09-30T02:53:02.384Z,97.50
2017-09-30T02:55:29.909Z,97.50
2017-09-30T02:57:57.436Z,97.50
2017-09-30T03:00:25.360Z,97.40
2017-09-30T03:02:52.877Z,97.40
2017-09-30T03:05:20.415Z,97.30
2017-09-30T03:07:47.928Z,97.40
2017-09-30T03:10:15.439Z,97.40
2017-09-30T03:12:42.970Z,97.50
2017-09-30T03:15:11.738Z,97.60
2017-09-30T03:17:39.848Z,97.90
2017-09-30T03:20:07.378Z,98.00
2017-09-30T03:22:34.902Z,98.00
2017-09-30T03:25:02.411Z,98.10
2017-09-30T03:27:29.949Z,98.10
2017-09-30T03:29:57.459Z,97.90
2017-09-30T03:32:24.999Z,97.80
2017-09-30T03:34:52.516Z,98.10
2017-09-30T03:37:20.036Z,98.30
2017-09-30T03:39:47.972Z,98.50
2017-09-30T03:42:15.496Z,98.50
2017-09-30T03:44:43.027Z,98.30
2017-09-30T03:47:10.963Z,98.30
2017-09-30T03:49:39.328Z,98.40
2017-09-30T03:52:06.838Z,98.60
2017-09-30T03:54:34.390Z,98.50
2017-09-30T03:57:01.904Z,98.70
2017-09-30T03:59:29.423Z,98.50
2017-09-30T04:01:56.955Z,98.70
2017-09-30T04:04:24.481Z,99.00
2017-09-30T04:06:52.007Z,99.10
2017-09-30T04:09:19.916Z,98.90
2017-09-30T04:11:47.448Z,98.90
2017-09-30T04:14:14.958Z,98.50
2017-09-30T04:16:42.470Z,98.50
2017-09-30T04:19:11.087Z,98.60
2017-09-30T04:21:39.227Z,98.80
2017-09-30T04:24:06.755Z,98.80
2017-09-30T04:26:34.661Z,99.10
2017-09-30T04:29:02.205Z,99.10
2017-09-30T04:31:29.718Z,98.90
2017-09-30T04:33:57.639Z,98.70
2017-09-30T04:36:25.170Z,98.70
2017-09-30T04:38:52.687Z,98.70
2017-09-30T04:41:20.212Z,98.70
2017-09-30T04:43:47.723Z,98.70
2017-09-30T04:46:15.247Z,98.80
2017-09-30T04:48:42.760Z,98.50
2017-09-30T04:51:10.887Z,98.50
2017-09-30T04:53:38.396Z,98.60
2017-09-30T04:56:06.955Z,98.60
2017-09-30T04:58:34.874Z,98.90
2017-09-30T05:01:02.386Z,98.90
2017-09-30T05:03:29.921Z,99.10
2017-09-30T05:05:57.444Z,99.10
2017-09-30T05:08:24.974Z,99.10
2017-09-30T05:10:52.495Z,99.10
2017-09-30T05:13:20.443Z,99.00
2017-09-30T05:15:48.936Z,99.00
2017-09-30T05:18:16.443Z,98.90
2017-09-30T05:20:43.975Z,99.00
2017-09-30T05:23:11.484Z,99.20
2017-09-30T05:25:41.565Z,99.00
2017-09-30T05:28:10.319Z,98.90
2017-09-30T05:30:38.244Z,99.30
2017-09-30T05:33:05.755Z,99.30
2017-09-30T05:35:33.279Z,99.30
2017-09-30T05:38:00.788Z,99.20
2017-09-30T05:40:28.299Z,99.30
2017-09-30T05:42:56.214Z,99.20
2017-09-30T05:45:23.719Z,99.20
2017-09-30T05:47:51.246Z,99.30
2017-09-30T05:50:18.756Z,99.40
2017-09-30T05:52:46.687Z,99.30
2017-09-30T05:55:14.196Z,99.30
2017-09-30T05:57:41.751Z,99.40
2017-09-30T06:00:09.994Z,99.30
2017-09-30T06:02:37.503Z,99.30
2017-09-30T06:05:05.424Z,99.30
2017-09-30T06:07:32.940Z,99.30
2017-09-30T06:10:00.472Z,99.30
2017-09-30T06:12:27.995Z,99.30
2017-09-30T06:14:55.556Z,99.30
2017-09-30T06:17:23.071Z,99.20
2017-09-30T06:19:50.587Z,99.50
2017-09-30T06:22:18.135Z,99.40
2017-09-30T06:24:45.643Z,99.30
2017-09-30T06:27:13.181Z,99.30
2017-09-30T06:29:41.720Z,99.40
2017-09-30T06:32:09.700Z,99.60
2017-09-30T06:34:37.218Z,99.60
2017-09-30T06:37:04.788Z,99.70
2017-09-30T06:39:32.305Z,99.70
2017-09-30T06:41:59.820Z,99.80
2017-09-30T06:44:27.359Z,99.60
2017-09-30T06:46:54.870Z,99.70
2017-09-30T06:49:22.790Z,99.50
2017-09-30T06:51:50.316Z,99.50
2017-09-30T06:54:17.847Z,99.60
2017-09-30T06:56:45.372Z,99.50
2017-09-30T06:59:12.882Z,99.50
2017-09-30T07:01:41.747Z,99.50
2017-09-30T07:04:09.791Z,99.50
2017-09-30T07:06:37.318Z,99.30
2017-09-30T07:09:05.240Z,99.30
2017-09-30T07:11:32.794Z,99.30
2017-09-30T07:14:00.703Z,99.50
2017-09-30T07:16:28.615Z,99.50
2017-09-30T07:18:56.151Z,99.50
2017-09-30T07:21:23.668Z,99.60
2017-09-30T07:23:51.602Z,99.60
2017-09-30T07:26:19.123Z,99.60
2017-09-30T07:28:46.659Z,99.80
2017-09-30T07:31:14.178Z,99.80
2017-09-30T07:33:41.723Z,99.80
2017-09-30T07:36:09.771Z,99.90
2017-09-30T07:38:37.292Z,99.80
2017-09-30T07:41:05.247Z,99.90
2017-09-30T07:43:32.768Z,99.90
2017-09-30T07:46:00.695Z,99.90
2017-09-30T07:48:28.215Z,99.90
2017-09-30T07:50:55.748Z,99.90
2017-09-30T07:53:23.658Z,99.90
2017-09-30T07:55:51.226Z,99.90
2017-09-30T07:58:19.131Z,99.80
2017-09-30T08:00:46.656Z,99.80
2017-09-30T08:03:14.195Z,99.80
2017-09-30T08:05:41.723Z,99.70
2017-09-30T08:08:10.819Z,99.90
2017-09-30T08:10:38.344Z,99.90
2017-09-30T08:13:05.897Z,99.90
2017-09-30T08:15:33.423Z,99.90
2017-09-30T08:18:00.944Z,99.90
2017-09-30T08:20:28.485Z,99.90
2017-09-30T08:22:55.999Z,99.90
2017-09-30T08:25:23.528Z,99.90
2017-09-30T08:27:51.048Z,99.90
2017-09-30T08:30:18.583Z,99.90
2017-09-30T08:32:46.115Z,99.90
2017-09-30T08:35:13.635Z,99.90
2017-09-30T08:37:41.566Z,99.90
2017-09-30T08:40:10.127Z,99.90
2017-09-30T08:42:38.055Z,99.90
2017-09-30T08:45:05.575Z,99.90
2017-09-30T08:47:33.107Z,99.90
2017-09-30T08:50:01.012Z,99.90
2017-09-30T08:52:28.563Z,99.90
2017-09-30T08:54:56.085Z,99.90
2017-09-30T08:57:23.597Z,99.90
2017-09-30T08:59:51.123Z,99.90
2017-09-30T09:02:18.639Z,99.90
2017-09-30T09:04:46.169Z,99.90
2017-09-30T09:07:13.682Z,99.90
2017-09-30T09:09:41.215Z,99.90
2017-09-30T09:12:08.777Z,99.80
2017-09-30T09:14:36.332Z,99.60
2017-09-30T09:17:04.248Z,99.50
2017-09-30T09:19:31.763Z,99.50
2017-09-30T09:21:59.370Z,99.70
2017-09-30T09:24:26.891Z,99.70
2017-09-30T09:26:54.819Z,99.90
2017-09-30T09:29:22.357Z,99.90
2017-09-30T09:31:50.304Z,99.90
2017-09-30T09:34:17.819Z,99.90
2017-09-30T09:36:45.375Z,99.90
2017-09-30T09:39:12.889Z,99.90
2017-09-30T09:41:41.657Z,99.90
2017-09-30T09:44:10.140Z,99.90
2017-09-30T09:46:37.752Z,99.90
2017-09-30T09:49:05.709Z,99.70
2017-09-30T09:51:33.224Z,99.70
2017-09-30T09:54:01.157Z,99.70
2017-09-30T09:56:28.675Z,99.70
2017-09-30T09:58:56.229Z,99.60
2017-09-30T10:01:23.759Z,99.80
2017-09-30T10:03:51.267Z,99.70
2017-09-30T10:06:18.795Z,99.50
2017-09-30T10:08:46.302Z,99.40
2017-09-30T10:11:13.829Z,99.10
2017-09-30T10:13:41.336Z,99.00
2017-09-30T10:16:08.875Z,98.60
2017-09-30T10:18:36.795Z,98.90
2017-09-30T10:21:04.331Z,98.90
2017-09-30T10:23:31.842Z,99.10
2017-09-30T10:25:59.391Z,99.20
2017-09-30T10:28:26.911Z,99.40
2017-09-30T10:30:54.428Z,99.40
2017-09-30T10:33:21.971Z,99.40
2017-09-30T10:35:49.479Z,99.60
2017-09-30T10:38:17.017Z,99.80
2017-09-30T10:40:44.530Z,99.60
2017-09-30T10:43:12.067Z,98.40
2017-09-30T10:45:40.371Z,97.80
2017-09-30T10:48:07.901Z,97.60
2017-09-30T10:50:35.424Z,97.80
2017-09-30T10:53:02.975Z,97.70
2017-09-30T10:55:30.487Z,98.30
2017-09-30T10:57:58.399Z,99.00
2017-09-30T11:00:25.940Z,99.00
2017-09-30T11:02:53.455Z,99.10
2017-09-30T11:05:21.388Z,99.00
2017-09-30T11:07:48.901Z,99.00
2017-09-30T11:10:16.423Z,99.20
2017-09-30T11:12:44.327Z,99.60
2017-09-30T11:15:11.860Z,99.60
2017-09-30T11:17:40.115Z,99.10
2017-09-30T11:20:07.666Z,99.30
2017-09-30T11:22:35.183Z,99.60
2017-09-30T11:25:03.090Z,99.80
2017-09-30T11:27:30.622Z,99.80
2017-09-30T11:29:58.179Z,99.80
2017-09-30T11:32:25.711Z,99.90
2017-09-30T11:34:53.623Z,99.40
2017-09-30T11:37:21.551Z,99.30
2017-09-30T11:39:49.071Z,99.30
2017-09-30T11:42:16.591Z,98.70
2017-09-30T11:44:44.110Z,98.10
2017-09-30T11:47:11.661Z,98.10
2017-09-30T11:49:39.642Z,97.90
2017-09-30T11:52:07.637Z,98.30
2017-09-30T11:54:35.560Z,99.40
2017-09-30T11:57:03.067Z,99.40
2017-09-30T11:59:30.599Z,99.60
2017-09-30T12:01:58.108Z,99.30
2017-09-30T12:04:25.640Z,99.70
2017-09-30T12:06:53.284Z,99.90
2017-09-30T12:09:21.312Z,99.90
2017-09-30T12:11:48.827Z,99.90
2017-09-30T12:14:16.359Z,99.90
2017-09-30T12:16:43.875Z,99.90
2017-09-30T12:19:12.331Z,99.80
2017-09-30T12:21:40.563Z,99.90
2017-09-30T12:24:08.078Z,99.90
2017-09-30T12:26:35.619Z,99.90
2017-09-30T12:29:03.136Z,99.90
2017-09-30T12:31:30.675Z,99.90
2017-09-30T12:33:58.594Z,99.90
2017-09-30T12:36:26.128Z,99.90
2017-09-30T12:38:53.655Z,99.90
2017-09-30T12:41:21.203Z,99.90
2017-09-30T12:43:48.727Z,99.90
2017-09-30T12:46:16.251Z,98.90
2017-09-30T12:48:43.783Z,98.00
2017-09-30T12:51:11.693Z,98.50
2017-09-30T12:53:40.355Z,98.50
2017-09-30T12:56:07.871Z,99.00
2017-09-30T12:58:35.808Z,99.60
2017-09-30T13:01:03.331Z,99.60
2017-09-30T13:03:31.016Z,99.90
2017-09-30T13:05:58.549Z,99.80
2017-09-30T13:08:26.095Z,99.90
2017-09-30T13:10:54.008Z,99.90
2017-09-30T13:13:21.699Z,99.90
2017-09-30T13:15:49.233Z,99.90
2017-09-30T13:18:16.746Z,99.90
2017-09-30T13:20:44.679Z,99.50
2017-09-30T13:23:12.192Z,99.60
2017-09-30T13:25:39.733Z,99.40
2017-09-30T13:28:07.243Z,99.60
2017-09-30T13:30:34.781Z,99.60
2017-09-30T13:33:02.295Z,99.70
2017-09-30T13:35:29.851Z,99.90
2017-09-30T13:37:57.364Z,99.70
2017-09-30T13:40:24.884Z,99.90
2017-09-30T13:42:52.418Z,99.70
2017-09-30T13:45:19.932Z,99.50
2017-09-30T13:47:47.476Z,99.40
2017-09-30T13:50:14.994Z,99.70
2017-09-30T13:52:42.533Z,99.70
2017-09-30T13:55:11.219Z,99.50
2017-09-30T13:57:39.088Z,99.20
2017-09-30T14:00:06.624Z,99.30
2017-09-30T14:02:34.581Z,98.90
2017-09-30T14:05:02.108Z,98.90
2017-09-30T14:07:30.016Z,98.70
2017-09-30T14:09:57.542Z,98.70
2017-09-30T14:12:25.079Z,98.70
2017-09-30T14:14:52.654Z,98.60
2017-09-30T14:17:20.583Z,98.90
2017-09-30T14:19:48.115Z,98.90
2017-09-30T14:22:16.027Z,99.20
2017-09-30T14:24:43.565Z,99.20
2017-09-30T14:27:11.087Z,99.00
2017-09-30T14:29:40.064Z,99.50
2017-09-30T14:32:07.586Z,99.50
2017-09-30T14:34:35.511Z,99.80
2017-09-30T14:37:03.050Z,99.70
2017-09-30T14:39:30.571Z,99.70
2017-09-30T14:41:58.114Z,99.90
2017-09-30T14:44:25.633Z,99.90
2017-09-30T14:46:53.171Z,99.90
2017-09-30T14:49:20.697Z,99.90
2017-09-30T14:51:48.236Z,99.90
2017-09-30T14:54:15.747Z,99.60
2017-09-30T14:56:43.292Z,99.90
2017-09-30T14:59:10.811Z,99.80
2017-09-30T15:01:38.365Z,99.30
2017-09-30T15:04:05.879Z,99.30
2017-09-30T15:06:33.394Z,99.60
2017-09-30T15:09:00.946Z,99.00
2017-09-30T15:11:28.468Z,99.20
2017-09-30T15:13:56.404Z,99.00
2017-09-30T15:16:23.927Z,99.00
2017-09-30T15:18:51.863Z,99.30
2017-09-30T15:21:19.380Z,99.30
2017-09-30T15:23:46.931Z,99.30
2017-09-30T15:26:14.446Z,99.10
2017-09-30T15:28:41.974Z,99.60
2017-09-30T15:31:10.579Z,99.60
2017-09-30T15:33:38.097Z,99.80
2017-09-30T15:36:05.636Z,99.90
2017-09-30T15:38:33.240Z,99.90
2017-09-30T15:41:00.787Z,99.70
2017-09-30T15:43:28.323Z,99.70
2017-09-30T15:45:55.885Z,99.60
2017-09-30T15:48:23.811Z,99.80
2017-09-30T15:50:51.338Z,99.80
2017-09-30T15:53:18.879Z,99.90
2017-09-30T15:55:46.404Z,99.90
2017-09-30T15:58:13.948Z,99.90
2017-09-30T16:00:41.478Z,99.80
2017-09-30T16:03:10.119Z,99.80
2017-09-30T16:05:38.059Z,99.70
2017-09-30T16:08:05.571Z,99.70
2017-09-30T16:10:33.119Z,99.80
2017-09-30T16:13:00.636Z,99.90
2017-09-30T16:15:28.178Z,99.90
2017-09-30T16:17:55.709Z,99.20
2017-09-30T16:20:23.255Z,99.30
2017-09-30T16:22:50.771Z,99.10
2017-09-30T16:25:18.328Z,98.90
2017-09-30T16:27:45.860Z,98.70
2017-09-30T16:30:13.379Z,98.40
2017-09-30T16:32:41.316Z,98.70
2017-09-30T16:35:08.837Z,98.70
2017-09-30T16:37:36.395Z,98.50
2017-09-30T16:40:03.920Z,98.30
2017-09-30T16:42:31.444Z,98.30
2017-09-30T16:44:58.960Z,98.60
2017-09-30T16:47:26.547Z,98.50
2017-09-30T16:49:54.064Z,98.70
2017-09-30T16:52:22.015Z,98.30
2017-09-30T16:54:49.536Z,98.30
2017-09-30T16:57:17.054Z,97.90
2017-09-30T16:59:44.593Z,98.10
2017-09-30T17:02:12.127Z,97.90
2017-09-30T17:04:39.660Z,98.40
2017-09-30T17:07:07.182Z,98.70
2017-09-30T17:09:35.111Z,98.40
2017-09-30T17:12:02.639Z,98.40
2017-09-30T17:14:30.173Z,98.40
2017-09-30T17:16:57.694Z,98.50
2017-09-30T17:19:25.258Z,98.70
2017-09-30T17:21:52.783Z,98.70
2017-09-30T17:24:20.700Z,98.20
2017-09-30T17:26:48.232Z,98.20
2017-09-30T17:29:15.747Z,98.20
2017-09-30T17:31:43.301Z,97.70
2017-09-30T17:34:10.814Z,98.10
2017-09-30T17:36:38.362Z,98.10
2017-09-30T17:39:05.887Z,98.10
2017-09-30T17:41:33.411Z,97.80
2017-09-30T17:44:00.960Z,98.00
2017-09-30T17:46:28.907Z,97.70
2017-09-30T17:48:56.431Z,97.70
2017-09-30T17:51:24.376Z,97.50
2017-09-30T17:53:51.971Z,97.50
2017-09-30T17:56:19.507Z,97.80
2017-09-30T17:58:47.447Z,97.70
2017-09-30T18:01:15.053Z,97.70
2017-09-30T18:03:43.034Z,97.80
2017-09-30T18:06:11.567Z,97.80
2017-09-30T18:08:40.536Z,97.80
2017-09-30T18:11:08.047Z,98.00
2017-09-30T18:13:35.606Z,98.00
2017-09-30T18:16:03.123Z,97.90
2017-09-30T18:18:30.648Z,97.90
2017-09-30T18:20:58.182Z,97.60
2017-09-30T18:23:25.690Z,97.90
2017-09-30T18:25:53.223Z,97.70
2017-09-30T18:28:20.736Z,97.80
2017-09-30T18:30:48.267Z,98.10
2017-09-30T18:33:15.777Z,98.10
2017-09-30T18:35:43.355Z,98.10
2017-09-30T18:38:11.237Z,98.10
2017-09-30T18:40:39.367Z,97.80
2017-09-30T18:43:06.923Z,97.80
2017-09-30T18:45:34.438Z,98.00
2017-09-30T18:48:02.373Z,98.00
2017-09-30T18:50:29.904Z,98.00
2017-09-30T18:52:57.443Z,98.10
2017-09-30T18:55:24.959Z,98.00
2017-09-30T18:57:52.492Z,98.00
2017-09-30T19:00:20.057Z,98.10
2017-09-30T19:02:48.188Z,98.60
2017-09-30T19:05:15.711Z,98.60
2017-09-30T19:07:43.231Z,98.20
2017-09-30T19:10:11.611Z,98.30
2017-09-30T19:12:40.239Z,98.30
2017-09-30T19:15:08.246Z,98.60
2017-09-30T19:17:36.294Z,98.70
2017-09-30T19:20:04.372Z,98.60
2017-09-30T19:22:31.921Z,98.70
2017-09-30T19:24:59.504Z,99.00
2017-09-30T19:27:27.036Z,98.90
2017-09-30T19:29:54.954Z,98.90
2017-09-30T19:32:22.507Z,98.90
2017-09-30T19:34:50.427Z,99.20
2017-09-30T19:37:17.963Z,99.20
2017-09-30T19:39:45.488Z,99.30
2017-09-30T19:42:13.427Z,99.30
2017-09-30T19:44:41.351Z,99.30
2017-09-30T19:47:08.900Z,99.40
2017-09-30T19:49:36.470Z,99.40
2017-09-30T19:52:04.096Z,99.30
2017-09-30T19:54:31.767Z,99.30
2017-09-30T19:56:59.284Z,99.20
2017-09-30T19:59:26.860Z,99.30
2017-09-30T20:01:54.424Z,99.40
2017-09-30T20:04:22.007Z,99.50
2017-09-30T20:06:49.754Z,99.60
2017-09-30T20:09:17.288Z,99.60
2017-09-30T20:11:44.863Z,99.60
2017-09-30T20:14:12.822Z,99.30
2017-09-30T20:16:41.262Z,99.30
2017-09-30T20:19:09.984Z,99.40
2017-09-30T20:21:37.528Z,99.30
2017-09-30T20:24:05.075Z,99.30
2017-09-30T20:26:32.656Z,99.20
2017-09-30T20:29:00.189Z,99.20
2017-09-30T20:31:27.719Z,98.90
2017-09-30T20:33:55.254Z,98.90
2017-09-30T20:36:22.783Z,99.20
2017-09-30T20:38:50.327Z,98.90
2017-09-30T20:41:18.251Z,99.00
2017-09-30T20:43:45.800Z,99.00
2017-09-30T20:46:13.348Z,98.90
2017-09-30T20:48:40.887Z,98.90
2017-09-30T20:51:08.428Z,99.00
2017-09-30T20:53:36.512Z,99.30
2017-09-30T20:56:04.140Z,99.30
2017-09-30T20:58:31.660Z,99.20
2017-09-30T21:00:59.754Z,98.60
2017-09-30T21:03:27.284Z,98.60
2017-09-30T21:05:54.826Z,98.50
2017-09-30T21:08:22.348Z,98.90
2017-09-30T21:10:50.401Z,98.90
2017-09-30T21:13:18.344Z,99.10
2017-09-30T21:15:45.871Z,99.10
2017-09-30T21:18:13.412Z,98.80
2017-09-30T21:20:41.168Z,98.60
2017-09-30T21:23:09.152Z,98.50
2017-09-30T21:25:36.703Z,98.70
2017-09-30T21:28:04.235Z,98.80
2017-09-30T21:30:31.820Z,98.80
2017-09-30T21:32:59.354Z,98.60
2017-09-30T21:35:27.291Z,98.10
2017-09-30T21:37:54.803Z,98.10
2017-09-30T21:40:22.335Z,98.00
2017-09-30T21:42:50.251Z,98.10
2017-09-30T21:45:17.776Z,98.20
2017-09-30T21:47:45.317Z,98.40
2017-09-30T21:50:12.847Z,98.20
2017-09-30T21:52:41.748Z,98.20
2017-09-30T21:55:09.895Z,98.30
2017-09-30T21:57:37.464Z,98.30
2017-09-30T22:00:05.003Z,98.40
2017-09-30T22:02:32.556Z,98.60
2017-09-30T22:05:00.092Z,98.20
2017-09-30T22:07:27.608Z,98.40
2017-09-30T22:09:55.142Z,98.80
2017-09-30T22:12:22.679Z,98.70
2017-09-30T22:14:50.213Z,98.40
2017-09-30T22:17:17.764Z,98.40
2017-09-30T22:19:45.301Z,98.20
2017-09-30T22:22:12.819Z,98.30
2017-09-30T22:24:41.467Z,98.80
2017-09-30T22:27:09.991Z,98.40
2017-09-30T22:29:37.513Z,98.40
2017-09-30T22:32:05.451Z,98.30
2017-09-30T22:34:32.971Z,98.30
2017-09-30T22:37:00.660Z,98.70
2017-09-30T22:39:28.171Z,98.70
2017-09-30T22:41:56.095Z,98.30
2017-09-30T22:44:23.626Z,98.30
2017-09-30T22:46:51.167Z,98.00
2017-09-30T22:49:19.084Z,98.40
2017-09-30T22:51:46.630Z,98.40
2017-09-30T22:54:14.185Z,98.90
2017-09-30T22:56:41.699Z,98.20
2017-09-30T22:59:10.426Z,98.60
2017-09-30T23:01:38.347Z,99.00
2017-09-30T23:04:06.275Z,99.10
2017-09-30T23:06:33.796Z,99.20
2017-09-30T23:09:01.335Z,98.90
2017-09-30T23:11:29.251Z,98.90
2017-09-30T23:13:56.857Z,98.90
2017-09-30T23:16:24.768Z,99.20
2017-09-30T23:18:52.290Z,99.30
2017-09-30T23:21:19.863Z,99.10
2017-09-30T23:23:47.396Z,99.20
2017-09-30T23:26:15.324Z,99.30
2017-09-30T23:28:42.836Z,99.30
2017-09-30T23:31:11.747Z,99.30
2017-09-30T23:33:39.712Z,99.50
2017-09-30T23:36:07.254Z,99.20
2017-09-30T23:38:34.768Z,99.20
2017-09-30T23:41:02.294Z,99.40
2017-09-30T23:43:29.850Z,99.50
2017-09-30T23:45:57.409Z,99.50
2017-09-30T23:48:24.951Z,99.70
2017-09-30T23:50:52.546Z,99.90
2017-09-30T23:53:20.204Z,99.80
2017-09-30T23:55:48.135Z,99.90
2017-09-30T23:58:15.667Z,99.90
